Time;durP1;ratioP1;P1;durP2;ratioP2;P2;SDS_P1;SDS_P2;PMS_P1;PMS_P2;Temp;Humidity;BMP_temperature;BMP_pressure;BME280_temperature;BME280_humidity;BME280_pressure;Samples;Min_cycle;Max_cycle;Signal;HPM_P1;HPM_P2
2024/04/23 00:01:34;;;;;;;4.82;1.63;;;;;;;;;;5537196;26;20254;-51
2024/04/23 00:04:01;;;;;;;4.35;2.00;;;;;;;;;;5503504;26;19987;-50
2024/04/23 00:06:27;;;;;;;4.13;3.20;;;;;;;;;;5535834;26;20003;-48
2024/04/23 00:08:54;;;;;;;3.72;2.47;;;;;;;;;;5539405;26;20046;-44
2024/04/23 00:11:20;;;;;;;3.90;2.10;;;;;;;;;;5512604;26;19998;-46
2024/04/23 00:13:47;;;;;;;3.15;2.30;;;;;;;;;;5520785;26;20011;-44
2024/04/23 00:16:13;;;;;;;4.90;2.03;;;;;;;;;;5510589;26;19996;-49
2024/04/23 00:18:40;;;;;;;7.03;2.10;;;;;;;;;;5507561;26;20001;-44
2024/04/23 00:21:07;;;;;;;4.60;1.83;;;;;;;;;;5509626;26;20002;-49
2024/04/23 00:23:35;;;;;;;4.70;2.50;;;;;;;;;;5522282;26;19994;-47
2024/04/23 00:26:03;;;;;;;18.23;12.55;;;;;;;;;;5490744;26;19997;-46
2024/04/23 00:28:29;;;;;;;21.90;18.30;;;;;;;;;;5502976;26;20099;-45
2024/04/23 00:30:56;;;;;;;26.52;21.02;;;;;;;;;;5502614;26;19997;-48
2024/04/23 00:33:22;;;;;;;22.90;17.55;;;;;;;;;;5513874;26;20124;-42
2024/04/23 00:35:49;;;;;;;20.38;14.85;;;;;;;;;;5505954;26;20333;-49
2024/04/23 00:38:16;;;;;;;13.80;10.02;;;;;;;;;;5502529;26;19982;-46
2024/04/23 00:40:42;;;;;;;12.25;8.85;;;;;;;;;;5502932;26;20103;-46
2024/04/23 00:43:09;;;;;;;6.80;3.35;;;;;;;;;;5517495;26;20211;-45
2024/04/23 00:45:40;;;;;;;12.73;3.90;;;;;;;;;;5506963;26;19987;-46
2024/04/23 00:48:07;;;;;;;8.68;2.70;;;;;;;;;;5476720;26;19991;-46
2024/04/23 00:50:33;;;;;;;7.13;2.50;;;;;;;;;;5470952;26;20146;-46
2024/04/23 00:53:00;;;;;;;5.22;1.80;;;;;;;;;;5482982;26;19987;-45
2024/04/23 00:55:26;;;;;;;7.15;1.67;;;;;;;;;;5484763;26;20002;-43
2024/04/23 00:57:53;;;;;;;4.90;1.42;;;;;;;;;;5467956;26;19999;-44
2024/04/23 01:00:19;;;;;;;4.47;1.48;;;;;;;;;;5462757;26;19995;-45
2024/04/23 01:02:46;;;;;;;2.65;1.30;;;;;;;;;;5466330;26;20081;-45
2024/04/23 01:05:13;;;;;;;3.63;1.30;;;;;;;;;;5466452;26;19999;-48
2024/04/23 01:07:39;;;;;;;4.70;1.15;;;;;;;;;;5466630;26;19986;-48
2024/04/23 01:10:06;;;;;;;2.80;1.20;;;;;;;;;;5466187;26;19987;-53
2024/04/23 01:12:32;;;;;;;5.28;1.20;;;;;;;;;;5466432;26;19997;-46
2024/04/23 01:14:59;;;;;;;2.92;1.15;;;;;;;;;;5465534;26;19997;-45
2024/04/23 01:17:26;;;;;;;5.22;1.30;;;;;;;;;;5466018;26;20207;-43
2024/04/23 01:19:56;;;;;;;4.30;1.20;;;;;;;;;;5466197;26;19991;-44
2024/04/23 01:22:31;;;;;;;5.80;1.60;;;;;;;;;;5466317;26;19994;-48
2024/04/23 01:25:04;;;;;;;2.67;1.13;;;;;;;;;;5465897;26;19998;-53
2024/04/23 01:27:30;;;;;;;6.38;1.38;;;;;;;;;;5465899;26;20190;-47
2024/04/23 01:29:57;;;;;;;4.68;1.40;;;;;;;;;;5465283;26;19997;-49
2024/04/23 01:32:26;;;;;;;2.75;1.30;;;;;;;;;;5465767;26;20011;-49
2024/04/23 01:34:54;;;;;;;5.13;1.20;;;;;;;;;;5465726;26;20083;-46
2024/04/23 01:37:22;;;;;;;6.63;1.10;;;;;;;;;;5466119;26;19991;-45
2024/04/23 01:39:48;;;;;;;3.53;1.33;;;;;;;;;;5465275;26;20040;-51
2024/04/23 01:42:16;;;;;;;2.08;1.13;;;;;;;;;;5465764;26;20009;-50
2024/04/23 01:44:42;;;;;;;4.43;1.17;;;;;;;;;;5465272;26;20070;-52
2024/04/23 01:47:09;;;;;;;2.75;1.00;;;;;;;;;;5465267;26;19983;-49
2024/04/23 01:49:36;;;;;;;5.22;1.10;;;;;;;;;;5465541;26;20166;-50
2024/04/23 01:52:02;;;;;;;4.00;1.10;;;;;;;;;;5465913;26;19983;-48
2024/04/23 01:54:29;;;;;;;4.53;1.00;;;;;;;;;;5465225;26;19987;-52
2024/04/23 01:56:55;;;;;;;3.60;1.35;;;;;;;;;;5465443;26;20139;-48
2024/04/23 01:59:22;;;;;;;5.63;1.60;;;;;;;;;;5465330;26;19987;-54
2024/04/23 02:01:52;;;;;;;5.10;1.52;;;;;;;;;;5465230;26;20011;-49
2024/04/23 02:04:19;;;;;;;3.15;1.40;;;;;;;;;;5465918;26;20176;-53
2024/04/23 02:06:46;;;;;;;4.30;1.27;;;;;;;;;;5465609;26;19991;-46
2024/04/23 02:09:13;;;;;;;6.30;1.50;;;;;;;;;;5464665;26;19995;-51
2024/04/23 02:11:41;;;;;;;6.55;1.90;;;;;;;;;;5470336;26;19995;-45
2024/04/23 02:14:07;;;;;;;4.95;2.00;;;;;;;;;;5482992;26;20035;-52
2024/04/23 02:16:34;;;;;;;6.85;1.83;;;;;;;;;;5467823;26;19983;-52
2024/04/23 02:19:00;;;;;;;4.47;1.75;;;;;;;;;;5468971;26;19987;-56
2024/04/23 02:21:27;;;;;;;5.28;1.75;;;;;;;;;;5468738;26;19987;-46
2024/04/23 02:23:53;;;;;;;7.03;2.00;;;;;;;;;;5468703;26;19983;-44
2024/04/23 02:26:20;;;;;;;3.20;1.80;;;;;;;;;;5468674;26;19998;-48
2024/04/23 02:28:47;;;;;;;10.70;2.05;;;;;;;;;;5490377;26;20019;-47
2024/04/23 02:31:13;;;;;;;7.78;2.80;;;;;;;;;;5503109;26;20026;-48
2024/04/23 02:33:40;;;;;;;9.70;3.50;;;;;;;;;;5491406;26;20090;-51
2024/04/23 02:36:07;;;;;;;8.85;3.80;;;;;;;;;;5505425;26;19997;-46
2024/04/23 02:38:33;;;;;;;6.03;3.33;;;;;;;;;;5504857;26;19993;-50
2024/04/23 02:41:00;;;;;;;6.05;3.10;;;;;;;;;;5505028;26;19994;-51
2024/04/23 02:43:26;;;;;;;8.07;2.60;;;;;;;;;;5505622;26;19986;-49
2024/04/23 02:45:53;;;;;;;4.30;2.25;;;;;;;;;;5504198;26;20001;-46
2024/04/23 02:48:19;;;;;;;6.10;2.20;;;;;;;;;;5493991;26;20005;-53
2024/04/23 02:50:46;;;;;;;6.55;1.90;;;;;;;;;;5478394;26;19995;-47
2024/04/23 02:53:12;;;;;;;6.85;1.77;;;;;;;;;;5468757;26;20074;-46
2024/04/23 02:55:39;;;;;;;8.52;1.90;;;;;;;;;;5468220;26;19991;-56
2024/04/23 02:58:05;;;;;;;6.57;1.50;;;;;;;;;;5473619;26;20047;-46
2024/04/23 03:00:32;;;;;;;5.22;1.70;;;;;;;;;;5488310;26;20001;-48
2024/04/23 03:02:59;;;;;;;6.72;2.03;;;;;;;;;;5504832;26;20006;-46
2024/04/23 03:05:25;;;;;;;5.10;1.80;;;;;;;;;;5504595;26;20068;-47
2024/04/23 03:07:52;;;;;;;5.80;1.88;;;;;;;;;;5504696;26;19989;-51
2024/04/23 03:10:18;;;;;;;6.65;1.38;;;;;;;;;;5504472;26;20001;-45
2024/04/23 03:12:45;;;;;;;5.63;1.35;;;;;;;;;;5504828;26;20034;-52
2024/04/23 03:15:11;;;;;;;5.30;1.13;;;;;;;;;;5504123;26;19994;-45
2024/04/23 03:17:38;;;;;;;4.72;1.00;;;;;;;;;;5504720;26;19982;-49
2024/04/23 03:20:05;;;;;;;5.28;1.50;;;;;;;;;;5504524;26;19990;-42
2024/04/23 03:22:31;;;;;;;6.00;1.02;;;;;;;;;;5489583;26;19990;-44
2024/04/23 03:24:58;;;;;;;5.65;0.98;;;;;;;;;;5466330;26;20017;-47
2024/04/23 03:27:25;;;;;;;4.88;1.08;;;;;;;;;;5467836;26;20044;-47
2024/04/23 03:29:51;;;;;;;5.60;0.77;;;;;;;;;;5472484;26;19991;-46
2024/04/23 03:32:18;;;;;;;3.45;1.00;;;;;;;;;;5514117;26;19994;-46
2024/04/23 03:34:44;;;;;;;5.82;1.23;;;;;;;;;;5506074;26;19997;-47
2024/04/23 03:37:11;;;;;;;6.75;1.17;;;;;;;;;;5467987;26;19986;-47
2024/04/23 03:39:37;;;;;;;4.28;1.20;;;;;;;;;;5467190;26;20033;-47
2024/04/23 03:42:04;;;;;;;5.78;1.42;;;;;;;;;;5467912;26;20006;-51
2024/04/23 03:44:31;;;;;;;5.30;1.25;;;;;;;;;;5467022;26;19998;-46
2024/04/23 03:46:57;;;;;;;3.00;0.95;;;;;;;;;;5467276;26;19994;-50
2024/04/23 03:49:24;;;;;;;4.30;1.15;;;;;;;;;;5467250;26;19990;-47
2024/04/23 03:51:51;;;;;;;5.38;1.35;;;;;;;;;;5468562;26;20006;-45
2024/04/23 03:54:17;;;;;;;5.72;1.40;;;;;;;;;;5485222;26;20199;-44
2024/04/23 03:56:44;;;;;;;1.88;1.02;;;;;;;;;;5503719;26;20199;-49
2024/04/23 03:59:10;;;;;;;6.35;1.50;;;;;;;;;;5504122;26;20203;-47
2024/04/23 04:01:37;;;;;;;5.85;1.23;;;;;;;;;;5503734;26;19992;-47
2024/04/23 04:06:49;;;;;;;5.25;1.50;;;;;;;;;;5501221;26;20043;-43
2024/04/23 04:09:15;;;;;;;5.95;1.48;;;;;;;;;;5480188;26;20139;-45
2024/04/23 04:11:42;;;;;;;5.85;1.45;;;;;;;;;;5503527;26;20103;-47
2024/04/23 04:14:08;;;;;;;5.80;1.45;;;;;;;;;;5503973;26;19993;-43
2024/04/23 04:16:35;;;;;;;6.18;1.30;;;;;;;;;;5503027;26;19994;-50
2024/04/23 04:19:01;;;;;;;3.88;1.45;;;;;;;;;;5503856;26;19982;-47
2024/04/23 04:21:28;;;;;;;3.15;1.25;;;;;;;;;;5503779;26;19993;-43
2024/04/23 04:23:55;;;;;;;9.85;1.60;;;;;;;;;;5503469;26;20183;-42
2024/04/23 04:26:21;;;;;;;3.38;1.30;;;;;;;;;;5503272;26;20152;-43
2024/04/23 04:28:48;;;;;;;4.45;1.17;;;;;;;;;;5503270;26;20010;-42
2024/04/23 04:31:14;;;;;;;5.65;1.33;;;;;;;;;;5503010;26;19986;-43
2024/04/23 04:33:41;;;;;;;3.40;1.00;;;;;;;;;;5503320;26;19986;-43
2024/04/23 04:36:08;;;;;;;3.83;0.90;;;;;;;;;;5502820;26;20002;-42
2024/04/23 04:38:34;;;;;;;7.13;1.10;;;;;;;;;;5503031;26;19982;-42
2024/04/23 04:41:01;;;;;;;5.55;1.13;;;;;;;;;;5503005;26;20002;-44
2024/04/23 04:43:27;;;;;;;5.63;0.93;;;;;;;;;;5503107;26;20206;-46
2024/04/23 04:45:54;;;;;;;5.47;0.90;;;;;;;;;;5502538;26;20001;-43
2024/04/23 04:48:20;;;;;;;6.28;1.00;;;;;;;;;;5482043;26;19998;-42
2024/04/23 04:50:47;;;;;;;7.60;1.17;;;;;;;;;;5502696;26;19985;-49
2024/04/23 04:53:13;;;;;;;3.75;1.20;;;;;;;;;;5503570;26;19990;-53
2024/04/23 04:55:40;;;;;;;8.63;1.20;;;;;;;;;;5502822;26;19990;-43
2024/04/23 04:58:07;;;;;;;5.45;0.93;;;;;;;;;;5503048;26;20012;-45
2024/04/23 05:00:33;;;;;;;5.22;1.25;;;;;;;;;;5502806;26;20046;-45
2024/04/23 05:03:00;;;;;;;6.10;0.90;;;;;;;;;;5502881;26;19997;-46
2024/04/23 05:05:26;;;;;;;3.33;1.13;;;;;;;;;;5502648;26;20126;-44
2024/04/23 05:07:53;;;;;;;5.47;0.93;;;;;;;;;;5502856;26;20247;-49
2024/04/23 05:10:19;;;;;;;5.22;0.98;;;;;;;;;;5502626;26;20195;-42
2024/04/23 05:12:46;;;;;;;5.20;0.93;;;;;;;;;;5502919;26;19993;-50
2024/04/23 05:15:14;;;;;;;7.25;1.05;;;;;;;;;;5502423;26;19986;-49
2024/04/23 05:17:41;;;;;;;8.05;0.98;;;;;;;;;;5502679;26;19982;-45
2024/04/23 05:20:10;;;;;;;9.95;1.05;;;;;;;;;;5502782;26;19994;-44
2024/04/23 05:22:36;;;;;;;7.82;0.90;;;;;;;;;;5502810;26;20052;-44
2024/04/23 05:25:04;;;;;;;5.78;0.90;;;;;;;;;;5501875;26;19990;-49
2024/04/23 05:27:30;;;;;;;9.52;1.00;;;;;;;;;;5502096;26;19997;-45
2024/04/23 05:29:57;;;;;;;4.47;0.85;;;;;;;;;;5502275;26;20002;-48
2024/04/23 05:35:10;;;;;;;5.13;0.98;;;;;;;;;;5502553;26;19998;-49
2024/04/23 05:37:36;;;;;;;2.95;0.63;;;;;;;;;;5502469;26;20002;-55
2024/04/23 05:40:03;;;;;;;5.97;1.00;;;;;;;;;;5502011;26;19986;-56
2024/04/23 05:42:30;;;;;;;8.48;1.00;;;;;;;;;;5502285;26;19986;-55
2024/04/23 05:44:56;;;;;;;2.85;0.80;;;;;;;;;;5501965;26;19993;-52
2024/04/23 05:47:23;;;;;;;7.65;1.05;;;;;;;;;;5503795;26;19986;-55
2024/04/23 05:50:08;;;;;;;5.00;1.20;;;;;;;;;;5505512;26;19990;-43
2024/04/23 05:52:53;;;;;;;4.80;0.95;;;;;;;;;;5505893;26;19994;-48
2024/04/23 05:55:38;;;;;;;5.68;0.82;;;;;;;;;;5505546;26;20038;-48
2024/04/23 05:58:05;;;;;;;2.92;0.57;;;;;;;;;;5505997;26;20006;-50
2024/04/23 06:00:32;;;;;;;6.20;0.82;;;;;;;;;;5505204;26;19999;-51
2024/04/23 06:02:58;;;;;;;2.78;0.80;;;;;;;;;;5505697;26;19979;-46
2024/04/23 06:05:25;;;;;;;5.03;0.80;;;;;;;;;;5505440;26;19987;-43
2024/04/23 06:07:52;;;;;;;3.90;0.55;;;;;;;;;;5505725;26;19990;-45
2024/04/23 06:10:19;;;;;;;7.68;0.98;;;;;;;;;;5505049;26;20102;-52
2024/04/23 06:12:45;;;;;;;6.10;0.73;;;;;;;;;;5505657;26;19986;-54
2024/04/23 06:15:12;;;;;;;7.05;1.00;;;;;;;;;;5505288;26;20002;-52
2024/04/23 06:17:39;;;;;;;6.68;0.73;;;;;;;;;;5494312;26;20002;-54
2024/04/23 06:20:06;;;;;;;4.55;0.88;;;;;;;;;;5477431;26;20146;-45
2024/04/23 06:22:38;;;;;;;5.88;0.80;;;;;;;;;;5469017;26;19994;-43
2024/04/23 06:25:06;;;;;;;3.00;0.70;;;;;;;;;;5468475;26;20216;-43
2024/04/23 06:27:33;;;;;;;4.70;0.80;;;;;;;;;;5468845;26;20123;-45
2024/04/23 06:30:10;;;;;;;4.07;0.80;;;;;;;;;;5468525;26;19995;-51
2024/04/23 06:32:37;;;;;;;4.03;1.05;;;;;;;;;;5468659;26;19991;-44
2024/04/23 06:35:04;;;;;;;6.15;0.73;;;;;;;;;;5468696;26;19991;-43
2024/04/23 06:37:30;;;;;;;7.90;0.88;;;;;;;;;;5468548;26;20114;-51
2024/04/23 06:39:57;;;;;;;7.60;1.00;;;;;;;;;;5468530;26;20091;-44
2024/04/23 06:42:23;;;;;;;6.30;0.90;;;;;;;;;;5468791;26;20003;-51
2024/04/23 06:44:50;;;;;;;9.13;1.30;;;;;;;;;;5468050;26;19997;-52
2024/04/23 06:47:19;;;;;;;4.15;0.70;;;;;;;;;;5468734;26;19986;-51
2024/04/23 06:49:46;;;;;;;4.97;0.73;;;;;;;;;;5468281;26;19990;-45
2024/04/23 06:52:16;;;;;;;8.75;1.20;;;;;;;;;;5468412;26;19994;-45
2024/04/23 06:54:42;;;;;;;8.35;0.98;;;;;;;;;;5468178;26;19987;-46
2024/04/23 06:57:09;;;;;;;4.72;0.70;;;;;;;;;;5468554;26;20097;-49
2024/04/23 06:59:35;;;;;;;6.32;0.65;;;;;;;;;;5467949;26;19987;-44
2024/04/23 07:02:02;;;;;;;3.75;0.77;;;;;;;;;;5468228;26;19991;-46
2024/04/23 07:04:29;;;;;;;10.90;1.00;;;;;;;;;;5468186;26;19986;-46
2024/04/23 07:06:55;;;;;;;4.57;0.70;;;;;;;;;;5468136;26;19987;-53
2024/04/23 07:09:22;;;;;;;7.60;0.82;;;;;;;;;;5467855;26;19991;-54
2024/04/23 07:11:49;;;;;;;7.60;0.90;;;;;;;;;;5468032;26;20199;-47
2024/04/23 07:14:15;;;;;;;6.68;0.57;;;;;;;;;;5468277;26;19983;-47
2024/04/23 07:16:45;;;;;;;6.93;0.90;;;;;;;;;;5467986;26;20195;-47
2024/04/23 07:19:14;;;;;;;6.85;1.20;;;;;;;;;;5468288;26;19991;-48
2024/04/23 07:21:40;;;;;;;10.02;0.63;;;;;;;;;;5467572;26;19982;-49
2024/04/23 07:24:07;;;;;;;6.18;0.70;;;;;;;;;;5467754;26;20064;-43
2024/04/23 07:26:34;;;;;;;5.68;0.63;;;;;;;;;;5467882;26;19982;-42
2024/04/23 07:29:00;;;;;;;4.35;0.70;;;;;;;;;;5467705;26;20048;-46
2024/04/23 07:31:27;;;;;;;3.78;0.60;;;;;;;;;;5467779;26;20290;-45
2024/04/23 07:33:53;;;;;;;3.17;0.52;;;;;;;;;;5467907;26;19993;-54
2024/04/23 07:36:20;;;;;;;5.95;0.65;;;;;;;;;;5467623;26;20200;-55
2024/04/23 07:38:47;;;;;;;5.78;0.52;;;;;;;;;;5467721;26;20066;-55
2024/04/23 07:41:14;;;;;;;4.95;0.80;;;;;;;;;;5467896;26;19995;-60
2024/04/23 07:43:41;;;;;;;5.05;0.73;;;;;;;;;;5468011;26;20133;-43
2024/04/23 07:46:08;;;;;;;6.25;0.70;;;;;;;;;;5467558;26;20052;-40
2024/04/23 07:48:35;;;;;;;6.97;1.00;;;;;;;;;;5467818;26;19994;-40
2024/04/23 07:51:01;;;;;;;4.75;0.55;;;;;;;;;;5467889;26;20026;-48
2024/04/23 07:53:28;;;;;;;4.65;0.75;;;;;;;;;;5467660;26;19989;-42
2024/04/23 07:55:55;;;;;;;8.60;0.80;;;;;;;;;;5467558;26;19990;-44
2024/04/23 07:58:22;;;;;;;6.28;0.60;;;;;;;;;;5467718;26;20040;-48
2024/04/23 08:00:48;;;;;;;5.70;0.80;;;;;;;;;;5467326;26;19995;-53
2024/04/23 08:03:15;;;;;;;3.92;0.68;;;;;;;;;;5467485;26;19999;-50
2024/04/23 08:05:42;;;;;;;7.68;0.80;;;;;;;;;;5467353;26;20043;-48
2024/04/23 08:08:08;;;;;;;4.47;0.88;;;;;;;;;;5467315;26;20002;-49
2024/04/23 08:10:35;;;;;;;5.68;0.60;;;;;;;;;;5466279;26;19993;-47
2024/04/23 08:13:02;;;;;;;3.42;0.70;;;;;;;;;;5467348;26;19987;-53
2024/04/23 08:15:28;;;;;;;6.30;0.80;;;;;;;;;;5467015;26;20154;-52
2024/04/23 08:17:55;;;;;;;5.50;0.88;;;;;;;;;;5467339;26;20091;-52
2024/04/23 08:20:22;;;;;;;3.75;0.65;;;;;;;;;;5471844;26;20121;-43
2024/04/23 08:22:49;;;;;;;6.32;0.60;;;;;;;;;;5483298;26;20081;-47
2024/04/23 08:25:17;;;;;;;7.07;0.80;;;;;;;;;;5466947;26;20002;-42
2024/04/23 08:27:47;;;;;;;5.18;0.60;;;;;;;;;;5467251;26;19989;-53
2024/04/23 08:30:14;;;;;;;4.60;0.82;;;;;;;;;;5466623;26;20176;-42
2024/04/23 08:32:41;;;;;;;5.72;0.80;;;;;;;;;;5467175;26;19987;-40
2024/04/23 08:35:07;;;;;;;4.38;0.80;;;;;;;;;;5467067;26;19987;-42
2024/04/23 08:37:34;;;;;;;6.65;0.90;;;;;;;;;;5466884;26;19986;-47
2024/04/23 08:40:01;;;;;;;4.60;0.73;;;;;;;;;;5466612;26;19998;-41
2024/04/23 08:42:27;;;;;;;9.05;0.65;;;;;;;;;;5467119;26;20085;-45
2024/04/23 08:44:55;;;;;;;4.97;0.60;;;;;;;;;;5466553;26;19987;-46
2024/04/23 08:47:22;;;;;;;6.15;0.90;;;;;;;;;;5466836;26;20091;-45
2024/04/23 08:49:48;;;;;;;3.85;0.80;;;;;;;;;;5466340;26;19987;-47
2024/04/23 08:52:16;;;;;;;6.38;0.70;;;;;;;;;;5466640;26;20003;-45
2024/04/23 08:54:44;;;;;;;5.53;0.85;;;;;;;;;;5466680;26;20011;-41
2024/04/23 08:57:14;;;;;;;7.28;0.90;;;;;;;;;;5466778;26;20011;-42
2024/04/23 08:59:41;;;;;;;5.80;0.73;;;;;;;;;;5466254;26;20089;-47
2024/04/23 09:02:10;;;;;;;5.43;0.70;;;;;;;;;;5466776;26;20015;-48
2024/04/23 09:04:36;;;;;;;6.45;0.80;;;;;;;;;;5481373;26;20278;-43
2024/04/23 09:07:04;;;;;;;10.82;1.25;;;;;;;;;;5502901;26;20011;-43
2024/04/23 09:09:30;;;;;;;14.30;0.98;;;;;;;;;;5502867;26;19991;-44
2024/04/23 09:12:01;;;;;;;11.80;0.93;;;;;;;;;;5503030;26;19998;-47
2024/04/23 09:14:27;;;;;;;6.30;0.90;;;;;;;;;;5502328;26;19993;-46
2024/04/23 09:16:56;;;;;;;6.38;0.88;;;;;;;;;;5502799;26;20030;-46
2024/04/23 09:19:22;;;;;;;6.95;1.08;;;;;;;;;;5502719;26;19993;-49
2024/04/23 09:21:49;;;;;;;3.58;0.90;;;;;;;;;;5503441;26;20005;-45
2024/04/23 09:24:25;;;;;;;8.35;0.68;;;;;;;;;;5506406;26;19994;-42
2024/04/23 09:26:51;;;;;;;8.77;1.10;;;;;;;;;;5506173;26;20184;-48
2024/04/23 09:29:18;;;;;;;6.82;0.70;;;;;;;;;;5506279;26;19994;-44
2024/04/23 09:31:45;;;;;;;5.65;0.85;;;;;;;;;;5505954;26;19986;-44
2024/04/23 09:34:12;;;;;;;11.55;1.00;;;;;;;;;;5506230;26;19993;-47
2024/04/23 09:36:38;;;;;;;5.22;0.68;;;;;;;;;;5505871;26;20083;-49
2024/04/23 09:39:14;;;;;;;10.23;0.80;;;;;;;;;;5506239;26;19990;-43
2024/04/23 09:41:41;;;;;;;10.13;1.45;;;;;;;;;;5505609;26;19994;-43
2024/04/23 09:44:11;;;;;;;5.18;0.80;;;;;;;;;;5506168;26;20022;-45
2024/04/23 09:46:38;;;;;;;11.93;1.00;;;;;;;;;;5505847;26;20197;-42
2024/04/23 09:49:05;;;;;;;8.65;0.80;;;;;;;;;;5505888;26;20006;-42
2024/04/23 09:51:32;;;;;;;12.55;0.98;;;;;;;;;;5505621;26;19990;-49
2024/04/23 09:54:01;;;;;;;9.82;1.33;;;;;;;;;;5505959;26;20001;-43
2024/04/23 09:56:28;;;;;;;4.97;0.70;;;;;;;;;;5505285;26;19997;-47
2024/04/23 09:58:54;;;;;;;9.25;1.35;;;;;;;;;;5505977;26;20004;-44
2024/04/23 10:01:23;;;;;;;6.45;1.30;;;;;;;;;;5505191;26;20028;-48
2024/04/23 10:03:51;;;;;;;8.63;1.63;;;;;;;;;;5505696;26;19994;-49
2024/04/23 10:06:24;;;;;;;14.48;1.30;;;;;;;;;;5505485;26;20136;-46
2024/04/23 10:08:59;;;;;;;8.27;1.30;;;;;;;;;;5505626;26;20086;-42
2024/04/23 10:11:28;;;;;;;8.55;0.85;;;;;;;;;;5505176;26;19994;-43
2024/04/23 10:13:57;;;;;;;12.00;1.35;;;;;;;;;;5505314;26;19986;-41
2024/04/23 10:16:31;;;;;;;5.50;1.02;;;;;;;;;;5504909;26;19992;-46
2024/04/23 10:19:02;;;;;;;9.13;1.10;;;;;;;;;;5494471;26;19993;-44
2024/04/23 10:21:30;;;;;;;8.35;0.93;;;;;;;;;;5477222;26;20039;-43
2024/04/23 10:24:07;;;;;;;10.70;1.38;;;;;;;;;;5468699;26;19991;-43
2024/04/23 10:26:39;;;;;;;12.70;1.33;;;;;;;;;;5468629;26;20080;-45
2024/04/23 10:29:07;;;;;;;9.63;1.23;;;;;;;;;;5468668;26;19990;-41
2024/04/23 10:31:34;;;;;;;5.88;1.33;;;;;;;;;;5468779;26;20048;-43
2024/04/23 10:34:02;;;;;;;7.07;1.40;;;;;;;;;;5468294;26;20088;-43
2024/04/23 10:36:35;;;;;;;15.77;1.40;;;;;;;;;;5468279;26;19991;-42
2024/04/23 10:39:02;;;;;;;9.57;1.30;;;;;;;;;;5468746;26;19990;-45
2024/04/23 10:41:29;;;;;;;7.70;1.00;;;;;;;;;;5468506;26;19997;-43
2024/04/23 10:43:57;;;;;;;10.30;1.65;;;;;;;;;;5468486;26;19994;-42
2024/04/23 10:46:24;;;;;;;6.57;1.27;;;;;;;;;;5468578;26;20036;-44
2024/04/23 10:48:59;;;;;;;5.97;1.15;;;;;;;;;;5468586;26;19998;-43
2024/04/23 10:51:25;;;;;;;9.60;1.38;;;;;;;;;;5468245;26;19990;-43
2024/04/23 10:53:52;;;;;;;10.15;1.63;;;;;;;;;;5468205;26;19983;-41
2024/04/23 10:56:26;;;;;;;7.95;1.50;;;;;;;;;;5468341;26;20124;-43
2024/04/23 10:59:02;;;;;;;11.00;1.90;;;;;;;;;;5491384;26;20016;-45
2024/04/23 11:01:29;;;;;;;9.10;1.83;;;;;;;;;;5506630;26;20010;-45
2024/04/23 11:03:57;;;;;;;5.40;1.60;;;;;;;;;;5506675;26;20059;-48
2024/04/23 11:06:43;;;;;;;8.45;1.50;;;;;;;;;;5511432;26;20218;-45
2024/04/23 11:09:16;;;;;;;7.53;1.60;;;;;;;;;;5502949;26;20099;-50
2024/04/23 11:11:50;;;;;;;5.18;1.55;;;;;;;;;;5503798;26;20019;-45
2024/04/23 11:14:16;;;;;;;6.80;1.25;;;;;;;;;;5499531;26;20207;-49
2024/04/23 11:16:43;;;;;;;7.03;1.38;;;;;;;;;;5503890;26;19991;-44
2024/04/23 11:19:10;;;;;;;13.13;1.55;;;;;;;;;;5504126;26;20039;-44
2024/04/23 11:21:40;;;;;;;11.68;2.05;;;;;;;;;;5503625;26;19990;-47
2024/04/23 11:24:10;;;;;;;13.25;1.58;;;;;;;;;;5501100;26;19997;-42
2024/04/23 11:26:39;;;;;;;10.63;1.80;;;;;;;;;;5502777;26;20020;-48
2024/04/23 11:29:10;;;;;;;18.98;2.13;;;;;;;;;;5504303;26;20236;-41
2024/04/23 11:31:38;;;;;;;8.25;1.40;;;;;;;;;;5506107;26;20005;-46
2024/04/23 11:34:05;;;;;;;6.82;1.70;;;;;;;;;;5503975;26;19997;-50
2024/04/23 11:36:32;;;;;;;14.10;1.88;;;;;;;;;;5503244;26;20012;-46
2024/04/23 11:39:06;;;;;;;5.85;1.75;;;;;;;;;;5501593;26;19986;-42
2024/04/23 11:41:32;;;;;;;7.38;1.70;;;;;;;;;;5496555;26;19990;-42
2024/04/23 11:44:01;;;;;;;14.85;2.88;;;;;;;;;;5500384;26;19991;-47
2024/04/23 11:46:28;;;;;;;14.10;2.42;;;;;;;;;;5500247;26;20544;-55
2024/04/23 11:48:54;;;;;;;8.18;2.15;;;;;;;;;;5501496;26;19998;-46
2024/04/23 11:51:21;;;;;;;5.68;1.58;;;;;;;;;;5499184;26;19990;-45
2024/04/23 11:53:48;;;;;;;8.68;1.85;;;;;;;;;;5500610;26;19986;-46
2024/04/23 11:56:15;;;;;;;7.50;1.42;;;;;;;;;;5504018;26;20001;-49
2024/04/23 11:58:42;;;;;;;6.90;1.27;;;;;;;;;;5503989;26;20272;-47
2024/04/23 12:01:09;;;;;;;8.52;1.65;;;;;;;;;;5503384;26;20002;-50
2024/04/23 12:03:36;;;;;;;8.27;1.17;;;;;;;;;;5501840;26;19990;-54
2024/04/23 12:06:03;;;;;;;7.60;1.40;;;;;;;;;;5500642;26;20002;-48
2024/04/23 12:08:30;;;;;;;6.47;1.60;;;;;;;;;;5500580;26;20194;-53
2024/04/23 12:10:57;;;;;;;58.10;5.50;;;;;;;;;;5500513;26;20000;-47
2024/04/23 12:13:24;;;;;;;39.72;5.22;;;;;;;;;;5500569;26;19997;-45
2024/04/23 12:15:51;;;;;;;18.48;2.83;;;;;;;;;;5500614;26;20198;-51
2024/04/23 12:18:17;;;;;;;13.85;2.58;;;;;;;;;;5501906;26;20006;-52
2024/04/23 12:20:44;;;;;;;10.82;2.28;;;;;;;;;;5504027;26;20164;-50
2024/04/23 12:23:11;;;;;;;16.10;2.25;;;;;;;;;;5503920;26;19986;-52
2024/04/23 12:25:38;;;;;;;17.58;2.00;;;;;;;;;;5503861;26;19987;-47
2024/04/23 12:28:07;;;;;;;16.10;1.98;;;;;;;;;;5504039;26;19992;-49
2024/04/23 12:30:34;;;;;;;11.60;1.45;;;;;;;;;;5504192;26;20159;-52
2024/04/23 12:33:13;;;;;;;10.20;1.58;;;;;;;;;;5502528;26;19986;-45
2024/04/23 12:35:40;;;;;;;8.90;1.50;;;;;;;;;;5503710;26;19986;-46
2024/04/23 12:38:12;;;;;;;9.40;1.60;;;;;;;;;;5504336;26;19998;-46
2024/04/23 12:40:39;;;;;;;7.95;1.52;;;;;;;;;;5503594;26;19982;-48
2024/04/23 12:43:09;;;;;;;7.30;1.38;;;;;;;;;;5503975;26;20047;-54
2024/04/23 12:45:38;;;;;;;4.38;1.30;;;;;;;;;;5503413;26;20022;-46
2024/04/23 12:48:05;;;;;;;9.20;1.48;;;;;;;;;;5503804;26;20095;-46
2024/04/23 12:50:31;;;;;;;7.72;1.25;;;;;;;;;;5503409;26;19990;-48
2024/04/23 12:52:58;;;;;;;5.32;1.27;;;;;;;;;;5503700;26;20115;-46
2024/04/23 12:55:27;;;;;;;4.80;1.10;;;;;;;;;;5503159;26;19982;-45
2024/04/23 12:57:53;;;;;;;6.32;1.42;;;;;;;;;;5504175;26;20016;-46
2024/04/23 13:00:20;;;;;;;3.72;1.15;;;;;;;;;;5503984;26;19989;-48
2024/04/23 13:02:47;;;;;;;4.22;1.30;;;;;;;;;;5503748;26;19982;-50
2024/04/23 13:05:13;;;;;;;8.15;1.38;;;;;;;;;;5503334;26;19989;-56
2024/04/23 13:07:40;;;;;;;5.93;1.40;;;;;;;;;;5503420;26;20012;-51
2024/04/23 13:10:07;;;;;;;4.88;1.17;;;;;;;;;;5503164;26;20096;-51
2024/04/23 13:12:33;;;;;;;7.65;1.45;;;;;;;;;;5503659;26;19986;-47
2024/04/23 13:15:00;;;;;;;8.88;1.33;;;;;;;;;;5502684;26;19982;-50
2024/04/23 13:17:26;;;;;;;5.38;1.38;;;;;;;;;;5502911;26;20039;-46
2024/04/23 13:19:53;;;;;;;3.45;0.90;;;;;;;;;;5503032;26;19997;-54
2024/04/23 13:22:19;;;;;;;5.85;1.63;;;;;;;;;;5503637;26;19986;-48
2024/04/23 13:24:46;;;;;;;4.40;1.80;;;;;;;;;;5503202;26;19998;-57
2024/04/23 13:27:13;;;;;;;8.48;1.77;;;;;;;;;;5503429;26;20017;-48
2024/04/23 13:29:40;;;;;;;4.68;1.25;;;;;;;;;;5502894;26;20102;-52
2024/04/23 13:32:08;;;;;;;4.03;1.60;;;;;;;;;;5503235;26;19994;-50
2024/04/23 13:34:34;;;;;;;2.88;1.35;;;;;;;;;;5502375;26;20074;-52
2024/04/23 13:37:03;;;;;;;5.35;1.20;;;;;;;;;;5503323;26;20046;-52
2024/04/23 13:39:30;;;;;;;4.18;1.40;;;;;;;;;;5487978;26;20043;-53
2024/04/23 13:41:56;;;;;;;3.63;1.40;;;;;;;;;;5467275;26;19995;-53
2024/04/23 13:44:23;;;;;;;4.40;1.13;;;;;;;;;;5465996;26;19986;-52
2024/04/23 13:46:49;;;;;;;4.32;1.10;;;;;;;;;;5466717;26;19995;-52
2024/04/23 13:49:16;;;;;;;3.85;1.30;;;;;;;;;;5466541;26;19990;-53
2024/04/23 13:51:42;;;;;;;5.90;1.10;;;;;;;;;;5466666;26;19987;-50
2024/04/23 13:54:09;;;;;;;3.38;0.90;;;;;;;;;;5466633;26;19997;-46
2024/04/23 13:56:36;;;;;;;3.38;0.98;;;;;;;;;;5466037;26;20002;-46
2024/04/23 13:59:02;;;;;;;4.80;1.05;;;;;;;;;;5466335;26;20007;-50
2024/04/23 14:01:31;;;;;;;2.63;0.90;;;;;;;;;;5465829;26;19990;-49
2024/04/23 14:03:59;;;;;;;2.42;1.10;;;;;;;;;;5466185;26;19991;-52
2024/04/23 14:06:25;;;;;;;3.08;0.90;;;;;;;;;;5466065;26;20089;-55
2024/04/23 14:08:52;;;;;;;4.32;1.00;;;;;;;;;;5468370;26;20047;-52
2024/04/23 14:11:18;;;;;;;5.20;1.10;;;;;;;;;;5469380;26;20003;-59
2024/04/23 14:13:45;;;;;;;7.30;1.20;;;;;;;;;;5469733;26;20011;-54
2024/04/23 14:16:12;;;;;;;5.22;1.30;;;;;;;;;;5469577;26;19999;-53
2024/04/23 14:18:40;;;;;;;5.93;1.00;;;;;;;;;;5469420;26;19987;-53
2024/04/23 14:21:07;;;;;;;4.40;0.90;;;;;;;;;;5469445;26;19987;-53
2024/04/23 14:23:34;;;;;;;4.55;0.70;;;;;;;;;;5469596;26;19986;-47
2024/04/23 14:26:02;;;;;;;7.78;1.00;;;;;;;;;;5469373;26;19987;-52
2024/04/23 14:28:29;;;;;;;6.05;1.00;;;;;;;;;;5469160;26;20089;-53
2024/04/23 14:31:02;;;;;;;3.03;0.75;;;;;;;;;;5468978;26;19982;-55
2024/04/23 14:33:30;;;;;;;3.50;0.70;;;;;;;;;;5469569;26;19994;-55
2024/04/23 14:35:56;;;;;;;5.13;0.70;;;;;;;;;;5468803;26;19999;-52
2024/04/23 14:38:23;;;;;;;3.60;0.73;;;;;;;;;;5469252;26;19990;-52
2024/04/23 14:40:59;;;;;;;4.05;0.70;;;;;;;;;;5503589;26;20226;-52
2024/04/23 14:43:26;;;;;;;2.65;0.50;;;;;;;;;;5505545;26;19997;-52
2024/04/23 14:45:53;;;;;;;3.58;0.50;;;;;;;;;;5505178;26;20135;-52
2024/04/23 14:48:20;;;;;;;4.63;0.60;;;;;;;;;;5505389;26;19997;-54